createdAt,value
2018-02-25T00:00:58.328Z,102770.88
2018-02-25T00:05:59.648Z,102768.05
2018-02-25T00:11:00.992Z,102768.61
2018-02-25T00:16:03.075Z,102766.75
2018-02-25T00:21:04.470Z,102767.33
2018-02-25T00:26:05.897Z,102765.05
2018-02-25T00:31:07.254Z,102769.33
2018-02-25T00:36:08.581Z,102755.80
2018-02-25T00:41:09.991Z,102757.80
2018-02-25T00:46:11.374Z,102765.50
2018-02-25T00:51:12.728Z,102770.14
2018-02-25T00:56:14.983Z,102773.60
2018-02-25T01:01:16.316Z,102770.72
2018-02-25T01:06:17.688Z,102781.89
2018-02-25T01:11:20.338Z,102783.77
2018-02-25T01:16:21.669Z,102775.42
2018-02-25T01:21:22.993Z,102785.84
2018-02-25T01:26:24.425Z,102784.38
2018-02-25T01:31:26.498Z,102777.23
2018-02-25T01:36:27.904Z,102778.06
2018-02-25T01:41:29.240Z,102776.78
2018-02-25T01:46:30.602Z,102764.81
2018-02-25T01:51:32.736Z,102773.57
2018-02-25T01:56:34.060Z,102771.58
2018-02-25T02:01:35.395Z,102765.02
2018-02-25T02:06:38.728Z,102757.46
2018-02-25T02:11:40.808Z,102765.84
2018-02-25T02:16:42.218Z,102762.31
2018-02-25T02:21:44.313Z,102763.39
2018-02-25T02:26:45.647Z,102759.91
2018-02-25T02:31:47.029Z,102764.05
2018-02-25T02:36:48.396Z,102771.05
2018-02-25T02:41:50.558Z,102778.04
2018-02-25T02:46:51.955Z,102783.84
2018-02-25T02:51:53.319Z,102778.70
2018-02-25T02:56:54.813Z,102780.08
2018-02-25T03:01:56.115Z,102781.01
2018-02-25T03:06:57.452Z,102778.84
2018-02-25T03:11:59.532Z,102785.84
2018-02-25T03:17:00.851Z,102793.80
2018-02-25T03:22:02.959Z,102795.38
2018-02-25T03:27:05.055Z,102808.30
2018-02-25T03:32:06.366Z,102809.98
2018-02-25T03:37:08.490Z,102814.16
2018-02-25T03:42:09.839Z,102804.91
2018-02-25T03:47:11.152Z,102815.78
2018-02-25T03:52:12.576Z,102805.89
2018-02-25T03:57:13.902Z,102811.17
2018-02-25T04:02:15.383Z,102813.28
2018-02-25T04:07:16.999Z,102817.64
2018-02-25T04:12:18.543Z,102811.40
2018-02-25T04:17:19.963Z,102815.79
2018-02-25T04:22:21.394Z,102817.06
2018-02-25T04:27:23.620Z,102806.66
2018-02-25T04:32:25.134Z,102806.52
2018-02-25T04:37:26.720Z,102809.09
2018-02-25T04:42:28.263Z,102808.84
2018-02-25T04:47:30.530Z,102816.22
2018-02-25T04:52:32.071Z,102805.23
2018-02-25T04:57:33.562Z,102809.73
2018-02-25T05:02:35.111Z,102802.82
2018-02-25T05:07:36.704Z,102801.73
2018-02-25T05:12:38.120Z,102815.73
2018-02-25T05:17:39.726Z,102812.59
2018-02-25T05:22:42.056Z,102814.54
2018-02-25T05:27:43.619Z,102829.59
2018-02-25T05:32:45.128Z,102832.23
2018-02-25T05:37:46.673Z,102829.84
2018-02-25T05:42:48.319Z,102841.38
2018-02-25T05:47:49.819Z,102828.72
2018-02-25T05:52:51.415Z,102835.20
2018-02-25T05:57:52.959Z,102848.05
2018-02-25T06:02:54.448Z,102848.45
2018-02-25T06:07:56.081Z,102848.89
2018-02-25T06:12:58.441Z,102859.84
2018-02-25T06:18:00.643Z,102866.37
2018-02-25T06:23:02.997Z,102863.30
2018-02-25T06:28:04.553Z,102860.72
2018-02-25T06:33:06.810Z,102869.09
2018-02-25T06:38:08.346Z,102864.62
2018-02-25T06:43:09.988Z,102870.13
2018-02-25T06:48:11.518Z,102865.05
2018-02-25T06:53:13.025Z,102862.64
2018-02-25T06:58:14.484Z,102868.52
2018-02-25T07:03:17.406Z,102868.14
2018-02-25T07:08:18.884Z,102875.31
2018-02-25T07:13:20.287Z,102871.30
2018-02-25T07:18:21.634Z,102886.73
2018-02-25T07:23:23.147Z,102864.72
2018-02-25T07:28:24.546Z,102885.88
2018-02-25T07:33:26.092Z,102886.67
2018-02-25T07:38:27.603Z,102880.73
2018-02-25T07:43:29.211Z,102871.52
2018-02-25T07:48:31.461Z,102870.22
2018-02-25T07:53:32.958Z,102875.81
2018-02-25T07:58:35.208Z,102884.77
2018-02-25T08:03:37.352Z,102883.73
2018-02-25T08:08:38.747Z,102864.48
2018-02-25T08:13:40.230Z,102880.73
2018-02-25T08:18:42.140Z,102883.53
2018-02-25T08:23:43.665Z,102888.38
2018-02-25T08:28:45.156Z,102896.17
2018-02-25T08:33:46.649Z,102893.94
2018-02-25T08:38:48.094Z,102887.66
2018-02-25T08:43:50.304Z,102883.56
2018-02-25T08:48:53.262Z,102890.88
2018-02-25T08:53:54.705Z,102887.55
2018-02-25T08:58:56.182Z,102883.36
2018-02-25T09:03:57.520Z,102878.95
2018-02-25T09:08:58.980Z,102890.14
2018-02-25T09:14:00.443Z,102881.95
2018-02-25T09:19:01.974Z,102883.42
2018-02-25T09:24:05.031Z,102885.64
2018-02-25T09:29:06.462Z,102881.37
2018-02-25T09:34:07.912Z,102878.37
2018-02-25T09:39:09.410Z,102894.68
2018-02-25T09:44:10.821Z,102884.09
2018-02-25T09:49:12.228Z,102879.97
2018-02-25T09:54:14.226Z,102891.92
2018-02-25T09:59:15.907Z,102886.02
2018-02-25T10:04:18.048Z,102891.09
2018-02-25T10:09:19.996Z,102891.30
2018-02-25T10:14:21.581Z,102892.81
2018-02-25T10:19:23.922Z,102883.80
2018-02-25T10:24:25.426Z,102879.72
2018-02-25T10:29:27.001Z,102877.13
2018-02-25T10:34:28.598Z,102863.93
2018-02-25T10:39:45.108Z,102852.84
2018-02-25T10:44:46.624Z,102855.91
2018-02-25T10:49:48.207Z,102859.08
2018-02-25T10:54:50.479Z,102848.98
2018-02-25T10:59:59.067Z,102848.48
2018-02-25T11:05:01.628Z,102839.58
2018-02-25T11:10:03.255Z,102823.80
2018-02-25T11:15:04.708Z,102818.69
2018-02-25T11:20:06.340Z,102819.36
2018-02-25T11:25:07.923Z,102808.72
2018-02-25T11:30:10.086Z,102809.88
2018-02-25T11:35:12.566Z,102814.66
2018-02-25T11:40:14.699Z,102792.51
2018-02-25T11:45:16.279Z,102777.41
2018-02-25T11:50:17.903Z,102776.08
2018-02-25T11:55:20.280Z,102766.33
2018-02-25T12:00:21.860Z,102760.28
2018-02-25T12:05:23.443Z,102761.97
2018-02-25T12:10:25.035Z,102768.42
2018-02-25T12:15:26.552Z,102764.14
2018-02-25T12:20:28.089Z,102758.17
2018-02-25T12:25:30.384Z,102754.28
2018-02-25T12:30:31.944Z,102751.52
2018-02-25T12:35:33.467Z,102744.13
2018-02-25T12:40:35.434Z,102741.48
2018-02-25T12:45:37.228Z,102747.73
2018-02-25T12:50:39.304Z,102727.34
2018-02-25T12:55:41.135Z,102718.70
2018-02-25T13:00:43.313Z,102715.28
2018-02-25T13:05:45.444Z,102716.85
2018-02-25T13:10:47.902Z,102708.97
2018-02-25T13:15:50.785Z,102711.53
2018-02-25T13:20:52.678Z,102714.81
2018-02-25T13:25:54.900Z,102701.37
2018-02-25T13:30:57.087Z,102702.28
2018-02-25T13:35:59.009Z,102704.37
2018-02-25T13:41:01.548Z,102692.88
2018-02-25T13:46:03.103Z,102693.87
2018-02-25T13:51:05.733Z,102683.83
2018-02-25T13:56:08.034Z,102678.94
2018-02-25T14:01:10.176Z,102678.63
2018-02-25T14:06:12.477Z,102682.47
2018-02-25T14:11:14.772Z,102676.81
2018-02-25T14:16:17.179Z,102678.52
2018-02-25T14:21:20.245Z,102678.25
2018-02-25T14:26:22.693Z,102670.84
2018-02-25T14:31:24.940Z,102666.02
2018-02-25T14:36:26.829Z,102679.50
2018-02-25T14:41:30.695Z,102680.44
2018-02-25T14:46:32.940Z,102672.84
2018-02-25T14:51:35.562Z,102673.81
2018-02-25T14:56:37.867Z,102672.16
2018-02-25T15:01:40.239Z,102686.14
2018-02-25T15:06:42.015Z,102672.70
2018-02-25T15:11:45.501Z,102676.57
2018-02-25T15:16:47.874Z,102681.34
2018-02-25T15:21:50.281Z,102675.68
2018-02-25T15:26:52.593Z,102666.81
2018-02-25T15:31:56.470Z,102664.17
2018-02-25T15:36:59.840Z,102668.64
2018-02-25T15:42:01.905Z,102664.06
2018-02-25T15:47:04.067Z,102668.14
2018-02-25T15:52:12.589Z,102654.95
2018-02-25T15:57:14.843Z,102678.38
2018-02-25T16:02:16.411Z,102666.95
2018-02-25T16:07:17.972Z,102659.34
2018-02-25T16:12:19.499Z,102660.70
2018-02-25T16:17:21.777Z,102662.12
2018-02-25T16:22:23.309Z,102662.58
2018-02-25T16:27:24.897Z,102664.58
2018-02-25T16:32:27.624Z,102664.86
2018-02-25T16:37:29.000Z,102662.92
2018-02-25T16:42:31.035Z,102671.08
2018-02-25T16:47:32.398Z,102665.05
2018-02-25T16:52:33.836Z,102683.45
2018-02-25T16:57:35.358Z,102677.08
2018-02-25T17:02:36.929Z,102685.92
2018-02-25T17:07:38.488Z,102679.33
2018-02-25T17:12:40.036Z,102682.83
2018-02-25T17:17:41.604Z,102683.13
2018-02-25T17:22:43.341Z,102690.63
2018-02-25T17:27:44.967Z,102688.61
2018-02-25T17:32:47.234Z,102685.08
2018-02-25T17:37:48.778Z,102683.40
2018-02-25T17:42:50.328Z,102687.27
2018-02-25T17:47:51.827Z,102685.45
2018-02-25T17:52:53.252Z,102691.48
2018-02-25T17:57:54.774Z,102689.81
2018-02-25T18:02:56.375Z,102683.61
2018-02-25T18:07:58.266Z,102683.97
2018-02-25T18:12:59.840Z,102679.72
2018-02-25T18:18:02.135Z,102670.77
2018-02-25T18:23:04.385Z,102690.95
2018-02-25T18:28:05.927Z,102683.34
2018-02-25T18:33:07.448Z,102688.33
2018-02-25T18:38:09.801Z,102686.76
2018-02-25T18:43:11.130Z,102692.93
2018-02-25T18:48:12.564Z,102702.59
2018-02-25T18:53:13.860Z,102702.75
2018-02-25T18:58:15.407Z,102702.73
2018-02-25T19:03:17.036Z,102694.75
2018-02-25T19:08:18.619Z,102714.22
2018-02-25T19:13:20.933Z,102701.99
2018-02-25T19:18:23.229Z,102704.59
2018-02-25T19:23:25.465Z,102707.45
2018-02-25T19:28:27.049Z,102705.54
2018-02-25T19:33:28.585Z,102712.15
2018-02-25T19:38:36.023Z,102704.65
2018-02-25T19:43:37.569Z,102706.93
2018-02-25T19:48:39.837Z,102708.41
2018-02-25T19:53:48.227Z,102712.20
2018-02-25T19:58:50.549Z,102703.58
2018-02-25T20:03:52.820Z,102710.84
2018-02-25T20:08:54.332Z,102710.09
2018-02-25T20:13:56.596Z,102715.28
2018-02-25T20:18:58.114Z,102711.11
2018-02-25T20:23:59.585Z,102707.83
2018-02-25T20:29:00.903Z,102704.05
2018-02-25T20:34:02.434Z,102718.73
2018-02-25T20:39:04.714Z,102721.17
2018-02-25T20:44:06.225Z,102713.17
2018-02-25T20:49:08.520Z,102712.88
2018-02-25T20:54:10.177Z,102709.48
2018-02-25T20:59:11.795Z,102705.44
2018-02-25T21:04:13.320Z,102716.12
2018-02-25T21:09:14.851Z,102707.58
2018-02-25T21:14:16.359Z,102706.47
2018-02-25T21:19:17.863Z,102706.75
2018-02-25T21:24:19.391Z,102713.09
2018-02-25T21:29:21.686Z,102709.06
2018-02-25T21:34:23.187Z,102721.58
2018-02-25T21:39:24.755Z,102712.12
2018-02-25T21:44:26.471Z,102709.89
2018-02-25T21:49:27.986Z,102703.67
2018-02-25T21:54:35.411Z,102709.26
2018-02-25T21:59:43.169Z,102706.57
2018-02-25T22:04:45.430Z,102709.45
2018-02-25T22:09:47.054Z,102715.16
2018-02-25T22:14:48.615Z,102691.73
2018-02-25T22:19:50.121Z,102689.00
2018-02-25T22:24:51.641Z,102696.45
2018-02-25T22:29:53.237Z,102705.71
2018-02-25T22:34:54.795Z,102712.29
2018-02-25T22:39:56.349Z,102705.45
2018-02-25T22:44:58.674Z,102713.42
2018-02-25T22:50:00.241Z,102713.51
2018-02-25T22:55:01.786Z,102707.30
2018-02-25T23:00:03.351Z,102705.52
2018-02-25T23:05:04.916Z,102710.67
2018-02-25T23:10:06.527Z,102703.92
2018-02-25T23:15:08.039Z,102718.44
2018-02-25T23:20:10.315Z,102715.85
2018-02-25T23:25:11.867Z,102705.97
2018-02-25T23:30:13.431Z,102712.67
2018-02-25T23:35:15.693Z,102716.98
2018-02-25T23:40:17.204Z,102716.80
2018-02-25T23:45:18.801Z,102718.24
2018-02-25T23:50:20.374Z,102718.78
2018-02-25T23:55:21.919Z,102717.16
